sensor_id;sensor_type;location;lat;lon;timestamp;pressure;altitude;pressure_sealevel;temperature;humidity
7105;BME280;3594;42.152;24.714;2023-01-19T00:01:18;-24121.44;;;10.90;nan
7105;BME280;3594;42.152;24.714;2023-01-19T00:03:44;-24125.53;;;11.04;nan
7105;BME280;3594;42.152;24.714;2023-01-19T00:06:09;-24133.41;;;11.33;nan
7105;BME280;3594;42.152;24.714;2023-01-19T00:08:35;-24124.41;;;11.00;nan
7105;BME280;3594;42.152;24.714;2023-01-19T00:11:01;-24143.84;;;11.70;nan
7105;BME280;3594;42.152;24.714;2023-01-19T00:13:47;-24145.41;;;11.76;nan
7105;BME280;3594;42.152;24.714;2023-01-19T00:16:43;-24155.53;;;12.12;nan
7105;BME280;3594;42.152;24.714;2023-01-19T00:19:15;-24154.13;;;12.07;nan
7105;BME280;3594;42.152;24.714;2023-01-19T00:21:55;-24149.34;;;11.90;nan
7105;BME280;3594;42.152;24.714;2023-01-19T00:24:37;-24143.84;;;11.70;nan
7105;BME280;3594;42.152;24.714;2023-01-19T00:27:44;-24137.50;;;11.47;nan
7105;BME280;3594;42.152;24.714;2023-01-19T00:30:56;-24135.53;;;11.40;nan
7105;BME280;3594;42.152;24.714;2023-01-19T00:34:04;-24132.16;;;11.28;nan
7105;BME280;3594;42.152;24.714;2023-01-19T00:40:53;-24137.34;;;11.47;nan
7105;BME280;3594;42.152;24.714;2023-01-19T00:43:46;-24133.97;;;11.35;nan
7105;BME280;3594;42.152;24.714;2023-01-19T00:46:15;-24132.16;;;11.28;nan
7105;BME280;3594;42.152;24.714;2023-01-19T00:48:43;-24132.44;;;11.29;nan
7105;BME280;3594;42.152;24.714;2023-01-19T00:51:11;-24141.72;;;11.63;nan
7105;BME280;3594;42.152;24.714;2023-01-19T00:53:37;-24150.75;;;11.95;nan
7105;BME280;3594;42.152;24.714;2023-01-19T00:56:04;-24167.06;;;12.54;nan
7105;BME280;3594;42.152;24.714;2023-01-19T00:58:31;-24190.69;;;13.39;nan
7105;BME280;3594;42.152;24.714;2023-01-19T01:01:00;-24205.28;;;13.91;nan
7105;BME280;3594;42.152;24.714;2023-01-19T01:03:29;-24203.19;;;13.84;nan
7105;BME280;3594;42.152;24.714;2023-01-19T01:05:57;-24201.91;;;13.79;nan
7105;BME280;3594;42.152;24.714;2023-01-19T01:08:26;-24196.03;;;13.58;nan
7105;BME280;3594;42.152;24.714;2023-01-19T01:10:54;-24199.97;;;13.72;nan
7105;BME280;3594;42.152;24.714;2023-01-19T01:13:22;-24202.19;;;13.80;nan
7105;BME280;3594;42.152;24.714;2023-01-19T01:15:50;-24198.69;;;13.67;nan
7105;BME280;3594;42.152;24.714;2023-01-19T01:18:17;-24191.25;;;13.41;nan
7105;BME280;3594;42.152;24.714;2023-01-19T01:20:43;-24196.72;;;13.60;nan
7105;BME280;3594;42.152;24.714;2023-01-19T01:23:27;-24197.28;;;13.62;nan
7105;BME280;3594;42.152;24.714;2023-01-19T01:26:04;-24189.00;;;13.33;nan
7105;BME280;3594;42.152;24.714;2023-01-19T01:28:39;-24188.03;;;13.29;nan
7105;BME280;3594;42.152;24.714;2023-01-19T01:31:18;-24196.72;;;13.60;nan
7105;BME280;3594;42.152;24.714;2023-01-19T01:33:46;-24199.13;;;13.69;nan
7105;BME280;3594;42.152;24.714;2023-01-19T01:36:12;-24201.38;;;13.77;nan
7105;BME280;3594;42.152;24.714;2023-01-19T01:38:47;-24198.28;;;13.66;nan
7105;BME280;3594;42.152;24.714;2023-01-19T01:41:23;-24178.31;;;12.94;nan
7105;BME280;3594;42.152;24.714;2023-01-19T01:43:58;-24172.97;;;12.75;nan
7105;BME280;3594;42.152;24.714;2023-01-19T01:46:29;-24180.28;;;13.01;nan
7105;BME280;3594;42.152;24.714;2023-01-19T01:49:09;-24176.06;;;12.86;nan
7105;BME280;3594;42.152;24.714;2023-01-19T01:51:47;-24169.19;;;12.61;nan
7105;BME280;3594;42.152;24.714;2023-01-19T01:54:28;-24154.13;;;12.07;nan
7105;BME280;3594;42.152;24.714;2023-01-19T01:57:02;-24149.63;;;11.91;nan
7105;BME280;3594;42.152;24.714;2023-01-19T01:59:31;-24150.19;;;11.93;nan
7105;BME280;3594;42.152;24.714;2023-01-19T02:02:06;-24142.56;;;11.66;nan
7105;BME280;3594;42.152;24.714;2023-01-19T02:04:59;-24140.03;;;11.57;nan
7105;BME280;3594;42.152;24.714;2023-01-19T02:10:36;-24137.22;;;11.46;nan
7105;BME280;3594;42.152;24.714;2023-01-19T02:13:23;-24136.38;;;11.43;nan
7105;BME280;3594;42.152;24.714;2023-01-19T02:15:53;-24127.63;;;11.12;nan
7105;BME280;3594;42.152;24.714;2023-01-19T02:18:23;-24134.25;;;11.36;nan
7105;BME280;3594;42.152;24.714;2023-01-19T02:21:21;-24132.72;;;11.30;nan
7105;BME280;3594;42.152;24.714;2023-01-19T02:24:17;-24130.88;;;11.24;nan
7105;BME280;3594;42.152;24.714;2023-01-19T02:26:47;-24135.09;;;11.39;nan
7105;BME280;3594;42.152;24.714;2023-01-19T02:29:16;-24123.53;;;10.97;nan
7105;BME280;3594;42.152;24.714;2023-01-19T02:31:43;-24126.50;;;11.08;nan
7105;BME280;3594;42.152;24.714;2023-01-19T02:34:11;-24127.22;;;11.11;nan
7105;BME280;3594;42.152;24.714;2023-01-19T02:39:14;-24124.25;;;11.00;nan
7105;BME280;3594;42.152;24.714;2023-01-19T02:41:46;-24130.31;;;11.22;nan
7105;BME280;3594;42.152;24.714;2023-01-19T02:44:13;-24113.25;;;10.60;nan
7105;BME280;3594;42.152;24.714;2023-01-19T02:46:40;-24118.91;;;10.81;nan
7105;BME280;3594;42.152;24.714;2023-01-19T02:49:06;-24135.81;;;11.41;nan
7105;BME280;3594;42.152;24.714;2023-01-19T02:51:32;-24135.25;;;11.39;nan
7105;BME280;3594;42.152;24.714;2023-01-19T02:56:45;-24129.88;;;11.20;nan
7105;BME280;3594;42.152;24.714;2023-01-19T03:04:45;-24131.88;;;11.27;nan
7105;BME280;3594;42.152;24.714;2023-01-19T03:12:56;-24110.16;;;10.49;nan
7105;BME280;3594;42.152;24.714;2023-01-19T03:15:53;-24120.88;;;10.88;nan
7105;BME280;3594;42.152;24.714;2023-01-19T03:18:23;-24117.47;;;10.76;nan
7105;BME280;3594;42.152;24.714;2023-01-19T03:20:51;-24116.78;;;10.73;nan
7105;BME280;3594;42.152;24.714;2023-01-19T03:23:21;-24110.28;;;10.50;nan
7105;BME280;3594;42.152;24.714;2023-01-19T03:25:51;-24095.88;;;9.98;nan
7105;BME280;3594;42.152;24.714;2023-01-19T03:28:19;-24107.63;;;10.40;nan
7105;BME280;3594;42.152;24.714;2023-01-19T03:30:56;-24101.81;;;10.19;nan
7105;BME280;3594;42.152;24.714;2023-01-19T03:33:32;-24106.47;;;10.36;nan
7105;BME280;3594;42.152;24.714;2023-01-19T03:36:04;-24099.84;;;10.12;nan
7105;BME280;3594;42.152;24.714;2023-01-19T03:38:38;-24108.16;;;10.42;nan
7105;BME280;3594;42.152;24.714;2023-01-19T03:41:10;-24105.06;;;10.31;nan
7105;BME280;3594;42.152;24.714;2023-01-19T03:43:38;-24094.19;;;9.92;nan
7105;BME280;3594;42.152;24.714;2023-01-19T03:46:05;-24094.19;;;9.92;nan
7105;BME280;3594;42.152;24.714;2023-01-19T03:48:32;-24094.63;;;9.94;nan
7105;BME280;3594;42.152;24.714;2023-01-19T03:51:02;-24093.78;;;9.91;nan
7105;BME280;3594;42.152;24.714;2023-01-19T03:53:28;-24103.94;;;10.27;nan
7105;BME280;3594;42.152;24.714;2023-01-19T03:55:53;-24093.34;;;9.89;nan
7105;BME280;3594;42.152;24.714;2023-01-19T03:58:19;-24098.16;;;10.06;nan
7105;BME280;3594;42.152;24.714;2023-01-19T04:00:46;-24100.41;;;10.14;nan
7105;BME280;3594;42.152;24.714;2023-01-19T04:03:14;-24106.75;;;10.37;nan
7105;BME280;3594;42.152;24.714;2023-01-19T04:05:40;-24107.47;;;10.40;nan
7105;BME280;3594;42.152;24.714;2023-01-19T04:08:06;-24109.59;;;10.47;nan
7105;BME280;3594;42.152;24.714;2023-01-19T04:10:32;-24093.78;;;9.91;nan
7105;BME280;3594;42.152;24.714;2023-01-19T04:12:59;-24102.25;;;10.21;nan
7105;BME280;3594;42.152;24.714;2023-01-19T04:15:25;-24104.06;;;10.28;nan
7105;BME280;3594;42.152;24.714;2023-01-19T04:17:51;-24096.16;;;9.99;nan
7105;BME280;3594;42.152;24.714;2023-01-19T04:20:16;-24103.38;;;10.25;nan
7105;BME280;3594;42.152;24.714;2023-01-19T04:22:42;-24104.50;;;10.29;nan
7105;BME280;3594;42.152;24.714;2023-01-19T04:25:08;-24100.84;;;10.16;nan
7105;BME280;3594;42.152;24.714;2023-01-19T04:27:35;-24102.53;;;10.22;nan
7105;BME280;3594;42.152;24.714;2023-01-19T04:30:01;-24104.78;;;10.30;nan
7105;BME280;3594;42.152;24.714;2023-01-19T04:32:28;-24107.47;;;10.40;nan
7105;BME280;3594;42.152;24.714;2023-01-19T04:35:20;-24107.88;;;10.41;nan
7105;BME280;3594;42.152;24.714;2023-01-19T04:37:56;-24104.06;;;10.28;nan
7105;BME280;3594;42.152;24.714;2023-01-19T04:40:21;-24097.03;;;10.02;nan
7105;BME280;3594;42.152;24.714;2023-01-19T04:42:47;-24113.13;;;10.60;nan
7105;BME280;3594;42.152;24.714;2023-01-19T04:45:12;-24104.38;;;10.29;nan
7105;BME280;3594;42.152;24.714;2023-01-19T04:47:38;-24111.41;;;10.54;nan
7105;BME280;3594;42.152;24.714;2023-01-19T04:50:04;-24107.31;;;10.39;nan
7105;BME280;3594;42.152;24.714;2023-01-19T04:52:32;-24122.69;;;10.94;nan
7105;BME280;3594;42.152;24.714;2023-01-19T04:55:02;-24115.94;;;10.70;nan
7105;BME280;3594;42.152;24.714;2023-01-19T04:57:28;-24110.16;;;10.49;nan
7105;BME280;3594;42.152;24.714;2023-01-19T04:59:55;-24106.63;;;10.37;nan
7105;BME280;3594;42.152;24.714;2023-01-19T05:02:21;-24109.31;;;10.46;nan
7105;BME280;3594;42.152;24.714;2023-01-19T05:04:47;-24109.03;;;10.45;nan
7105;BME280;3594;42.152;24.714;2023-01-19T05:07:12;-24111.69;;;10.55;nan
7105;BME280;3594;42.152;24.714;2023-01-19T05:09:38;-24108.88;;;10.45;nan
7105;BME280;3594;42.152;24.714;2023-01-19T05:12:04;-24107.47;;;10.40;nan
7105;BME280;3594;42.152;24.714;2023-01-19T05:14:29;-24096.31;;;10.00;nan
7105;BME280;3594;42.152;24.714;2023-01-19T05:16:55;-24096.44;;;10.00;nan
7105;BME280;3594;42.152;24.714;2023-01-19T05:19:22;-24112.69;;;10.58;nan
7105;BME280;3594;42.152;24.714;2023-01-19T05:21:48;-24101.53;;;10.18;nan
7105;BME280;3594;42.152;24.714;2023-01-19T05:24:13;-24100.97;;;10.16;nan
7105;BME280;3594;42.152;24.714;2023-01-19T05:26:39;-24103.66;;;10.26;nan
7105;BME280;3594;42.152;24.714;2023-01-19T05:29:04;-24089.38;;;9.75;nan
7105;BME280;3594;42.152;24.714;2023-01-19T05:31:30;-24097.44;;;10.04;nan
7105;BME280;3594;42.152;24.714;2023-01-19T05:33:57;-24092.63;;;9.87;nan
7105;BME280;3594;42.152;24.714;2023-01-19T05:36:23;-24090.66;;;9.80;nan
7105;BME280;3594;42.152;24.714;2023-01-19T05:38:48;-24088.97;;;9.73;nan
7105;BME280;3594;42.152;24.714;2023-01-19T05:41:14;-24087.84;;;9.69;nan
7105;BME280;3594;42.152;24.714;2023-01-19T05:43:39;-24084.03;;;9.56;nan
7105;BME280;3594;42.152;24.714;2023-01-19T05:46:05;-24089.53;;;9.75;nan
7105;BME280;3594;42.152;24.714;2023-01-19T05:48:31;-24092.34;;;9.86;nan
7105;BME280;3594;42.152;24.714;2023-01-19T05:50:58;-24082.31;;;9.50;nan
7105;BME280;3594;42.152;24.714;2023-01-19T05:53:24;-24095.47;;;9.97;nan
7105;BME280;3594;42.152;24.714;2023-01-19T05:55:49;-24095.19;;;9.96;nan
7105;BME280;3594;42.152;24.714;2023-01-19T05:58:15;-24093.78;;;9.91;nan
7105;BME280;3594;42.152;24.714;2023-01-19T06:00:41;-24093.78;;;9.91;nan
7105;BME280;3594;42.152;24.714;2023-01-19T06:03:06;-24091.50;;;9.83;nan
7105;BME280;3594;42.152;24.714;2023-01-19T06:05:32;-24085.00;;;9.59;nan
7105;BME280;3594;42.152;24.714;2023-01-19T06:07:58;-24078.50;;;9.36;nan
7105;BME280;3594;42.152;24.714;2023-01-19T06:10:23;-24062.25;;;8.78;nan
7105;BME280;3594;42.152;24.714;2023-01-19T06:12:49;-24067.06;;;8.95;nan
7105;BME280;3594;42.152;24.714;2023-01-19T06:15:16;-24044.69;;;8.15;nan
7105;BME280;3594;42.152;24.714;2023-01-19T06:17:41;-24064.22;;;8.85;nan
7105;BME280;3594;42.152;24.714;2023-01-19T06:20:07;-24071.72;;;9.12;nan
7105;BME280;3594;42.152;24.714;2023-01-19T06:22:33;-24071.88;;;9.12;nan
7105;BME280;3594;42.152;24.714;2023-01-19T06:24:58;-24064.66;;;8.86;nan
7105;BME280;3594;42.152;24.714;2023-01-19T06:27:24;-24070.72;;;9.08;nan
7105;BME280;3594;42.152;24.714;2023-01-19T06:29:49;-24069.75;;;9.05;nan
7105;BME280;3594;42.152;24.714;2023-01-19T06:32:15;-24070.72;;;9.08;nan
7105;BME280;3594;42.152;24.714;2023-01-19T06:34:41;-24080.91;;;9.45;nan
7105;BME280;3594;42.152;24.714;2023-01-19T06:37:11;-24079.91;;;9.41;nan
7105;BME280;3594;42.152;24.714;2023-01-19T06:39:37;-24078.09;;;9.35;nan
7105;BME280;3594;42.152;24.714;2023-01-19T06:42:06;-24084.03;;;9.56;nan
7105;BME280;3594;42.152;24.714;2023-01-19T06:44:31;-24083.16;;;9.53;nan
7105;BME280;3594;42.152;24.714;2023-01-19T06:46:57;-24079.78;;;9.41;nan
7105;BME280;3594;42.152;24.714;2023-01-19T06:49:22;-24088.53;;;9.72;nan
7105;BME280;3594;42.152;24.714;2023-01-19T06:51:48;-24088.69;;;9.72;nan
7105;BME280;3594;42.152;24.714;2023-01-19T06:54:13;-24088.13;;;9.70;nan
7105;BME280;3594;42.152;24.714;2023-01-19T06:56:39;-24087.97;;;9.70;nan
7105;BME280;3594;42.152;24.714;2023-01-19T06:59:04;-24096.44;;;10.00;nan
7105;BME280;3594;42.152;24.714;2023-01-19T07:01:30;-24097.59;;;10.04;nan
7105;BME280;3594;42.152;24.714;2023-01-19T07:03:56;-24109.31;;;10.46;nan
7105;BME280;3594;42.152;24.714;2023-01-19T07:06:22;-24104.78;;;10.30;nan
7105;BME280;3594;42.152;24.714;2023-01-19T07:08:47;-24109.03;;;10.45;nan
7105;BME280;3594;42.152;24.714;2023-01-19T07:11:13;-24119.59;;;10.83;nan
7105;BME280;3594;42.152;24.714;2023-01-19T07:13:39;-24120.44;;;10.86;nan
7105;BME280;3594;42.152;24.714;2023-01-19T07:16:10;-24115.78;;;10.70;nan
7105;BME280;3594;42.152;24.714;2023-01-19T07:18:36;-24137.22;;;11.46;nan
7105;BME280;3594;42.152;24.714;2023-01-19T07:21:03;-24126.78;;;11.09;nan
7105;BME280;3594;42.152;24.714;2023-01-19T07:23:29;-24129.59;;;11.19;nan
7105;BME280;3594;42.152;24.714;2023-01-19T07:25:58;-24136.38;;;11.43;nan
7105;BME280;3594;42.152;24.714;2023-01-19T07:28:28;-24131.16;;;11.25;nan
7105;BME280;3594;42.152;24.714;2023-01-19T07:30:54;-24145.41;;;11.76;nan
7105;BME280;3594;42.152;24.714;2023-01-19T07:33:20;-24150.59;;;11.94;nan
7105;BME280;3594;42.152;24.714;2023-01-19T07:35:51;-24157.66;;;12.20;nan
7105;BME280;3594;42.152;24.714;2023-01-19T07:38:17;-24161.31;;;12.33;nan
7105;BME280;3594;42.152;24.714;2023-01-19T07:40:44;-24162.44;;;12.37;nan
7105;BME280;3594;42.152;24.714;2023-01-19T07:43:11;-24165.81;;;12.49;nan
7105;BME280;3594;42.152;24.714;2023-01-19T07:45:37;-24164.97;;;12.46;nan
7105;BME280;3594;42.152;24.714;2023-01-19T07:48:03;-24158.06;;;12.21;nan
7105;BME280;3594;42.152;24.714;2023-01-19T07:50:29;-24170.59;;;12.66;nan
7105;BME280;3594;42.152;24.714;2023-01-19T07:52:55;-24175.50;;;12.84;nan
7105;BME280;3594;42.152;24.714;2023-01-19T07:55:21;-24178.03;;;12.93;nan
7105;BME280;3594;42.152;24.714;2023-01-19T07:57:47;-24181.56;;;13.06;nan
7105;BME280;3594;42.152;24.714;2023-01-19T08:00:18;-24181.69;;;13.06;nan
7105;BME280;3594;42.152;24.714;2023-01-19T08:02:47;-24183.38;;;13.12;nan
7105;BME280;3594;42.152;24.714;2023-01-19T08:05:16;-24185.63;;;13.20;nan
7105;BME280;3594;42.152;24.714;2023-01-19T08:07:41;-24194.47;;;13.52;nan
7105;BME280;3594;42.152;24.714;2023-01-19T08:10:08;-24203.19;;;13.84;nan
7105;BME280;3594;42.152;24.714;2023-01-19T08:12:33;-24200.94;;;13.76;nan
7105;BME280;3594;42.152;24.714;2023-01-19T08:14:59;-24196.44;;;13.59;nan
7105;BME280;3594;42.152;24.714;2023-01-19T08:17:24;-24210.50;;;14.10;nan
7105;BME280;3594;42.152;24.714;2023-01-19T08:19:50;-24207.81;;;14.00;nan
7105;BME280;3594;42.152;24.714;2023-01-19T08:22:15;-24214.84;;;14.26;nan
7105;BME280;3594;42.152;24.714;2023-01-19T08:24:40;-24206.13;;;13.94;nan
7105;BME280;3594;42.152;24.714;2023-01-19T08:27:06;-24220.31;;;14.45;nan
7105;BME280;3594;42.152;24.714;2023-01-19T08:29:34;-24225.78;;;14.65;nan
7105;BME280;3594;42.152;24.714;2023-01-19T08:31:59;-24221.44;;;14.49;nan
7105;BME280;3594;42.152;24.714;2023-01-19T08:34:28;-24223.41;;;14.56;nan
7105;BME280;3594;42.152;24.714;2023-01-19T08:36:55;-24230.41;;;14.82;nan
7105;BME280;3594;42.152;24.714;2023-01-19T08:39:21;-24232.38;;;14.89;nan
7105;BME280;3594;42.152;24.714;2023-01-19T08:41:48;-24225.78;;;14.65;nan
7105;BME280;3594;42.152;24.714;2023-01-19T08:44:14;-24239.78;;;15.16;nan
7105;BME280;3594;42.152;24.714;2023-01-19T08:46:40;-24235.03;;;14.98;nan
7105;BME280;3594;42.152;24.714;2023-01-19T08:49:06;-24242.44;;;15.25;nan
7105;BME280;3594;42.152;24.714;2023-01-19T08:51:31;-24244.13;;;15.31;nan
7105;BME280;3594;42.152;24.714;2023-01-19T08:53:58;-24254.34;;;15.68;nan
7105;BME280;3594;42.152;24.714;2023-01-19T08:56:24;-24244.00;;;15.31;nan
7105;BME280;3594;42.152;24.714;2023-01-19T08:58:49;-24252.69;;;15.62;nan
7105;BME280;3594;42.152;24.714;2023-01-19T09:01:15;-24254.34;;;15.68;nan
7105;BME280;3594;42.152;24.714;2023-01-19T09:03:42;-24263.72;;;16.02;nan
7105;BME280;3594;42.152;24.714;2023-01-19T09:06:09;-24263.59;;;16.02;nan
7105;BME280;3594;42.152;24.714;2023-01-19T09:08:34;-24256.03;;;15.74;nan
7105;BME280;3594;42.152;24.714;2023-01-19T09:11:00;-24252.94;;;15.63;nan
7105;BME280;3594;42.152;24.714;2023-01-19T09:13:26;-24264.28;;;16.04;nan
7105;BME280;3594;42.152;24.714;2023-01-19T09:15:51;-24269.88;;;16.24;nan
7105;BME280;3594;42.152;24.714;2023-01-19T09:18:19;-24271.13;;;16.29;nan
7105;BME280;3594;42.152;24.714;2023-01-19T09:20:46;-24269.03;;;16.21;nan
7105;BME280;3594;42.152;24.714;2023-01-19T09:23:15;-24281.06;;;16.65;nan
7105;BME280;3594;42.152;24.714;2023-01-19T09:25:43;-24272.41;;;16.33;nan
7105;BME280;3594;42.152;24.714;2023-01-19T09:28:10;-24273.78;;;16.39;nan
7105;BME280;3594;42.152;24.714;2023-01-19T09:30:38;-24279.66;;;16.60;nan
7105;BME280;3594;42.152;24.714;2023-01-19T09:33:09;-24287.63;;;16.89;nan
7105;BME280;3594;42.152;24.714;2023-01-19T09:35:36;-24294.75;;;17.14;nan
7105;BME280;3594;42.152;24.714;2023-01-19T09:38:02;-24299.78;;;17.33;nan
7105;BME280;3594;42.152;24.714;2023-01-19T09:40:28;-24295.03;;;17.15;nan
7105;BME280;3594;42.152;24.714;2023-01-19T09:42:56;-24304.94;;;17.51;nan
7105;BME280;3594;42.152;24.714;2023-01-19T09:45:38;-24292.81;;;17.07;nan
7105;BME280;3594;42.152;24.714;2023-01-19T09:48:29;-24292.66;;;17.07;nan
7105;BME280;3594;42.152;24.714;2023-01-19T09:51:00;-24310.38;;;17.71;nan
7105;BME280;3594;42.152;24.714;2023-01-19T09:53:38;-24309.41;;;17.67;nan
7105;BME280;3594;42.152;24.714;2023-01-19T09:56:26;-24315.28;;;17.89;nan
7105;BME280;3594;42.152;24.714;2023-01-19T09:58:53;-24314.00;;;17.84;nan
7105;BME280;3594;42.152;24.714;2023-01-19T10:04:15;-24315.28;;;17.89;nan
7105;BME280;3594;42.152;24.714;2023-01-19T10:06:52;-24327.53;;;18.33;97.33
7105;BME280;3594;42.152;24.714;2023-01-19T10:09:58;-24324.47;;;18.22;95.96
7105;BME280;3594;42.152;24.714;2023-01-19T10:20:25;-24328.38;;;18.36;89.21
7105;BME280;3594;42.152;24.714;2023-01-19T10:22:53;-24332.56;;;18.51;80.47
7105;BME280;3594;42.152;24.714;2023-01-19T10:25:21;-24345.38;;;18.98;78.64
7105;BME280;3594;42.152;24.714;2023-01-19T10:27:50;-24337.56;;;18.70;77.87
7105;BME280;3594;42.152;24.714;2023-01-19T10:30:20;-24347.19;;;19.05;79.53
7105;BME280;3594;42.152;24.714;2023-01-19T10:32:47;-24355.38;;;19.34;84.77
7105;BME280;3594;42.152;24.714;2023-01-19T10:35:15;-24353.28;;;19.27;83.29
7105;BME280;3594;42.152;24.714;2023-01-19T10:37:52;-24360.25;;;19.52;77.51
7105;BME280;3594;42.152;24.714;2023-01-19T10:42:55;-24364.44;;;19.67;73.00
7105;BME280;3594;42.152;24.714;2023-01-19T10:45:26;-24371.50;;;19.93;71.37
7105;BME280;3594;42.152;24.714;2023-01-19T10:47:56;-24377.22;;;20.14;70.62
7105;BME280;3594;42.152;24.714;2023-01-19T10:50:36;-24391.22;;;20.65;60.68
7105;BME280;3594;42.152;24.714;2023-01-19T10:53:04;-24385.53;;;20.44;58.73
7105;BME280;3594;42.152;24.714;2023-01-19T10:55:38;-24381.66;;;20.30;59.33
7105;BME280;3594;42.152;24.714;2023-01-19T10:58:05;-24386.78;;;20.49;58.36
7105;BME280;3594;42.152;24.714;2023-01-19T11:03:03;-24390.53;;;20.62;61.47
7105;BME280;3594;42.152;24.714;2023-01-19T11:05:31;-24398.72;;;20.92;57.18
7105;BME280;3594;42.152;24.714;2023-01-19T11:07:56;-24395.13;;;20.79;58.71
7105;BME280;3594;42.152;24.714;2023-01-19T11:13:02;-24410.50;;;21.35;58.60
7105;BME280;3594;42.152;24.714;2023-01-19T11:15:39;-24393.19;;;20.72;59.26
7105;BME280;3594;42.152;24.714;2023-01-19T11:18:06;-24394.28;;;20.76;59.21
7105;BME280;3594;42.152;24.714;2023-01-19T11:23:17;-24397.75;;;20.89;57.75
7105;BME280;3594;42.152;24.714;2023-01-19T11:25:47;-24394.69;;;20.78;56.76
7105;BME280;3594;42.152;24.714;2023-01-19T11:28:28;-24403.84;;;21.11;53.06
7105;BME280;3594;42.152;24.714;2023-01-19T11:31:18;-24393.19;;;20.72;55.39
7105;BME280;3594;42.152;24.714;2023-01-19T11:36:22;-24398.72;;;20.92;50.83
7105;BME280;3594;42.152;24.714;2023-01-19T11:38:51;-24399.56;;;20.95;52.29
7105;BME280;3594;42.152;24.714;2023-01-19T11:41:23;-24401.50;;;21.02;53.68
7105;BME280;3594;42.152;24.714;2023-01-19T11:44:49;-24405.94;;;21.19;52.28
7105;BME280;3594;42.152;24.714;2023-01-19T11:47:01;-24408.56;;;21.28;48.34
7105;BME280;3594;42.152;24.714;2023-01-19T11:49:44;-24408.16;;;21.27;48.10
7105;BME280;3594;42.152;24.714;2023-01-19T11:55:20;-24395.66;;;20.81;43.57
7105;BME280;3594;42.152;24.714;2023-01-19T11:57:49;-24394.97;;;20.79;42.79
7105;BME280;3594;42.152;24.714;2023-01-19T12:00:24;-24392.91;;;20.71;42.56
7105;BME280;3594;42.152;24.714;2023-01-19T12:02:54;-24388.31;;;20.54;42.01
7105;BME280;3594;42.152;24.714;2023-01-19T12:05:31;-24392.06;;;20.68;41.73
7105;BME280;3594;42.152;24.714;2023-01-19T12:08:01;-24389.16;;;20.57;40.35
7105;BME280;3594;42.152;24.714;2023-01-19T12:10:30;-24388.03;;;20.53;40.16
7105;BME280;3594;42.152;24.714;2023-01-19T12:12:58;-24390.41;;;20.62;40.22
7105;BME280;3594;42.152;24.714;2023-01-19T12:15:42;-24400.25;;;20.98;41.54
7105;BME280;3594;42.152;24.714;2023-01-19T12:18:16;-24390.97;;;20.64;39.17
7105;BME280;3594;42.152;24.714;2023-01-19T12:20:49;-24396.50;;;20.84;39.37
7105;BME280;3594;42.152;24.714;2023-01-19T12:28:43;-24382.34;;;20.33;39.78
7105;BME280;3594;42.152;24.714;2023-01-19T12:31:18;-24385.97;;;20.46;39.48
7105;BME280;3594;42.152;24.714;2023-01-19T12:33:45;-24377.34;;;20.14;39.53
7105;BME280;3594;42.152;24.714;2023-01-19T12:39:19;-24381.38;;;20.29;39.11
7105;BME280;3594;42.152;24.714;2023-01-19T12:41:46;-24380.25;;;20.25;38.99
7105;BME280;3594;42.152;24.714;2023-01-19T12:46:59;-24388.88;;;20.56;38.67
7105;BME280;3594;42.152;24.714;2023-01-19T12:52:19;-24388.88;;;20.56;38.62
7105;BME280;3594;42.152;24.714;2023-01-19T12:54:50;-24390.13;;;20.61;38.76
7105;BME280;3594;42.152;24.714;2023-01-19T12:57:33;-24388.88;;;20.56;39.38
7105;BME280;3594;42.152;24.714;2023-01-19T13:00:46;-24387.50;;;20.51;40.32
7105;BME280;3594;42.152;24.714;2023-01-19T13:03:01;-24382.63;;;20.34;40.62
7105;BME280;3594;42.152;24.714;2023-01-19T13:11:12;-24384.28;;;20.40;41.43
7105;BME280;3594;42.152;24.714;2023-01-19T13:21:34;-24377.47;;;20.15;43.33
7105;BME280;3594;42.152;24.714;2023-01-19T13:26:30;-24378.03;;;20.17;43.70
7105;BME280;3594;42.152;24.714;2023-01-19T13:29:06;-24378.47;;;20.18;44.04
7105;BME280;3594;42.152;24.714;2023-01-19T13:31:33;-24372.91;;;19.98;44.69
7105;BME280;3594;42.152;24.714;2023-01-19T13:34:00;-24374.28;;;20.03;45.47
7105;BME280;3594;42.152;24.714;2023-01-19T13:36:37;-24377.06;;;20.13;43.92
7105;BME280;3594;42.152;24.714;2023-01-19T13:39:11;-24375.69;;;20.08;43.69
7105;BME280;3594;42.152;24.714;2023-01-19T13:41:39;-24376.66;;;20.12;45.16
7105;BME280;3594;42.152;24.714;2023-01-19T13:44:25;-24367.06;;;19.77;43.16
7105;BME280;3594;42.152;24.714;2023-01-19T13:46:53;-24365.53;;;19.71;44.24
7105;BME280;3594;42.152;24.714;2023-01-19T13:49:30;-24371.78;;;19.94;44.25
7105;BME280;3594;42.152;24.714;2023-01-19T13:54:28;-24371.50;;;19.93;43.87
7105;BME280;3594;42.152;24.714;2023-01-19T13:56:54;-24372.34;;;19.96;44.20
7105;BME280;3594;42.152;24.714;2023-01-19T13:59:19;-24362.19;;;19.59;44.93
7105;BME280;3594;42.152;24.714;2023-01-19T14:01:45;-24364.16;;;19.66;44.36
7105;BME280;3594;42.152;24.714;2023-01-19T14:04:30;-24354.53;;;19.31;48.36
7105;BME280;3594;42.152;24.714;2023-01-19T14:07:00;-24359.56;;;19.50;49.79
7105;BME280;3594;42.152;24.714;2023-01-19T14:09:26;-24353.00;;;19.26;51.88
7105;BME280;3594;42.152;24.714;2023-01-19T14:12:14;-24357.59;;;19.42;52.27
7105;BME280;3594;42.152;24.714;2023-01-19T14:14:42;-24352.47;;;19.24;52.40
7105;BME280;3594;42.152;24.714;2023-01-19T14:17:22;-24352.03;;;19.22;52.64
7105;BME280;3594;42.152;24.714;2023-01-19T14:19:53;-24354.81;;;19.32;48.47
7105;BME280;3594;42.152;24.714;2023-01-19T14:22:19;-24354.13;;;19.30;50.31
7105;BME280;3594;42.152;24.714;2023-01-19T14:24:44;-24346.19;;;19.01;50.28
7105;BME280;3594;42.152;24.714;2023-01-19T14:27:21;-24346.75;;;19.03;47.78
7105;BME280;3594;42.152;24.714;2023-01-19T14:29:49;-24340.06;;;18.79;52.30
7105;BME280;3594;42.152;24.714;2023-01-19T14:37:32;-24332.41;;;18.51;54.56
7105;BME280;3594;42.152;24.714;2023-01-19T14:40:14;-24329.75;;;18.41;50.40
7105;BME280;3594;42.152;24.714;2023-01-19T14:42:53;-24328.66;;;18.37;47.72
7105;BME280;3594;42.152;24.714;2023-01-19T14:45:33;-24332.41;;;18.51;46.81
7105;BME280;3594;42.152;24.714;2023-01-19T14:48:01;-24325.16;;;18.25;45.43
7105;BME280;3594;42.152;24.714;2023-01-19T14:50:29;-24336.44;;;18.66;43.92
7105;BME280;3594;42.152;24.714;2023-01-19T14:53:02;-24328.38;;;18.36;44.14
7105;BME280;3594;42.152;24.714;2023-01-19T14:55:58;-24334.78;;;18.60;44.90
7105;BME280;3594;42.152;24.714;2023-01-19T14:58:26;-24324.88;;;18.24;46.08
7105;BME280;3594;42.152;24.714;2023-01-19T15:00:52;-24328.78;;;18.38;48.78
7105;BME280;3594;42.152;24.714;2023-01-19T15:03:20;-24320.28;;;18.07;49.53